Terminal Aerodrome Forecast
Issued by NWS Paducah, KY

Home | Current Version | Previous Version | Text Only | Print | Product List | Glossary On
Versions: 1 2 3 4 5 6 7 8 9 10 11 12 13 14 15 16
000
FTUS43 KPAH 010540
TAFPAH
TAF
KPAH 010540Z 0106/0206 09004KT P6SM OVC060
     FM011100 VRB04KT 4SM -DZ BR FEW010 OVC030
     FM011400 25005KT 2SM -DZ BR OVC008
     FM011800 27005KT 5SM -DZ BR OVC005
     FM020100 36006KT P6SM OVC020=

USA.gov is the U.S. government's official web portal to all federal, state and local government web resources and services.